createdAt,value
2023-04-01T00:02:20.501Z,98876.72
2023-04-01T00:05:25.217Z,98875.16
2023-04-01T00:08:27.786Z,98885.59
2023-04-01T00:11:30.414Z,98874.72
2023-04-01T00:14:32.535Z,98884.81
2023-04-01T00:17:35.052Z,98879.56
2023-04-01T00:20:37.713Z,98872.81
2023-04-01T00:23:40.167Z,98876.72
2023-04-01T00:26:43.306Z,98880.87
2023-04-01T00:29:47.311Z,98876.72
2023-04-01T00:32:53.435Z,98884.69
2023-04-01T00:35:56.002Z,98869.16
2023-04-01T00:38:59.863Z,98866.03
2023-04-01T00:42:03.720Z,98869.41
2023-04-01T00:45:32.631Z,98864.47
2023-04-01T00:48:39.380Z,98859.19
2023-04-01T00:51:44.086Z,98857.72
2023-04-01T00:54:49.416Z,98860.63
2023-04-01T00:57:54.384Z,98862.09
2023-04-01T01:01:00.278Z,98856.03
2023-04-01T01:04:05.842Z,98858.37
2023-04-01T01:07:44.747Z,98856.16
2023-04-01T01:10:50.364Z,98856.59
2023-04-01T01:13:58.563Z,98864.47
2023-04-01T01:17:33.802Z,98866.16
2023-04-01T01:21:07.677Z,98863.13
2023-04-01T01:24:22.160Z,98855.38
2023-04-01T01:27:24.936Z,98853.91
2023-04-01T01:30:33.246Z,98852.91
2023-04-01T01:33:51.304Z,98847.28
2023-04-01T01:37:01.925Z,98846.81
2023-04-01T01:40:08.288Z,98851.66
2023-04-01T01:43:16.060Z,98852.22
2023-04-01T01:46:23.185Z,98853.34
2023-04-01T01:49:26.305Z,98849.84
2023-04-01T01:52:31.539Z,98849.50
2023-04-01T01:55:36.433Z,98846.03
2023-04-01T01:58:44.046Z,98846.72
2023-04-01T02:01:51.665Z,98851.19
2023-04-01T02:04:54.890Z,98845.81
2023-04-01T02:08:35.083Z,98846.94
2023-04-01T02:11:52.578Z,98842.44
2023-04-01T02:14:58.222Z,98846.59
2023-04-01T02:18:00.865Z,98840.41
2023-04-01T02:21:05.995Z,98841.09
2023-04-01T02:24:13.957Z,98834.78
2023-04-01T02:27:16.392Z,98834.22
2023-04-01T02:30:19.687Z,98826.13
2023-04-01T02:33:22.587Z,98827.03
2023-04-01T02:36:26.036Z,98827.16
2023-04-01T02:39:28.909Z,98826.13
2023-04-01T02:42:31.143Z,98817.38
2023-04-01T02:45:33.951Z,98822.84
2023-04-01T02:48:36.307Z,98820.84
2023-04-01T02:51:38.877Z,98821.28
2023-04-01T02:54:41.475Z,98824.66
2023-04-01T02:57:43.921Z,98834.97
2023-04-01T03:00:46.273Z,98828.34
2023-04-01T03:03:48.858Z,98829.72
2023-04-01T03:06:51.098Z,98828.94
2023-04-01T03:09:53.529Z,98830.50
2023-04-01T03:12:56.305Z,98835.87
2023-04-01T03:15:58.877Z,98826.56
2023-04-01T03:19:02.949Z,98810.84
2023-04-01T03:22:05.933Z,98817.03
2023-04-01T03:25:08.962Z,98819.37
2023-04-01T03:28:11.664Z,98828.13
2023-04-01T03:31:14.487Z,98835.75
2023-04-01T03:34:17.282Z,98834.97
2023-04-01T03:37:19.474Z,98832.28
2023-04-01T03:40:22.683Z,98842.59
2023-04-01T03:43:24.845Z,98850.34
2023-04-01T03:46:27.523Z,98849.13
2023-04-01T03:49:29.824Z,98850.69
2023-04-01T03:52:32.371Z,98858.78
2023-04-01T03:55:36.113Z,98859.13
2023-04-01T03:58:40.030Z,98854.84
2023-04-01T04:01:42.710Z,98857.63
2023-04-01T04:04:45.871Z,98859.66
2023-04-01T04:07:48.216Z,98845.84
2023-04-01T04:10:56.791Z,98851.69
2023-04-01T04:13:59.296Z,98855.72
2023-04-01T04:17:02.197Z,98857.75
2023-04-01T04:20:04.981Z,98852.47
2023-04-01T04:23:07.440Z,98853.16
2023-04-01T04:26:13.676Z,98845.97
2023-04-01T04:29:16.091Z,98853.38
2023-04-01T04:32:18.431Z,98846.22
2023-04-01T04:35:21.108Z,98844.66
2023-04-01T04:38:23.575Z,98849.25
2023-04-01T04:41:26.860Z,98840.75
2023-04-01T04:44:29.058Z,98843.56
2023-04-01T04:47:32.287Z,98841.09
2023-04-01T04:50:34.550Z,98841.31
2023-04-01T04:53:36.977Z,98835.47
2023-04-01T04:56:39.208Z,98836.03
2023-04-01T04:59:42.097Z,98849.28
2023-04-01T05:02:44.989Z,98843.88
2023-04-01T05:05:53.011Z,98840.44
2023-04-01T05:08:55.304Z,98839.09
2023-04-01T05:11:58.872Z,98841.22
2023-04-01T05:15:01.599Z,98839.31
2023-04-01T05:18:04.705Z,98838.41
2023-04-01T05:21:09.400Z,98837.63
2023-04-01T05:24:11.878Z,98845.62
2023-04-01T05:27:14.272Z,98859.53
2023-04-01T05:30:17.032Z,98857.41
2023-04-01T05:33:19.387Z,98858.41
2023-04-01T05:36:22.712Z,98857.75
2023-04-01T05:39:25.735Z,98861.00
2023-04-01T05:42:28.486Z,98866.50
2023-04-01T05:45:30.780Z,98862.66
2023-04-01T05:48:36.371Z,98862.59
2023-04-01T05:51:38.570Z,98860.09
2023-04-01T05:54:41.149Z,98866.94
2023-04-01T05:57:43.307Z,98860.31
2023-04-01T06:00:46.764Z,98855.66
2023-04-01T06:03:52.296Z,98859.59
2023-04-01T06:06:54.725Z,98862.72
2023-04-01T06:09:57.168Z,98867.03
2023-04-01T06:13:11.046Z,98864.63
2023-04-01T06:16:36.670Z,98867.09
2023-04-01T06:19:52.025Z,98860.53
2023-04-01T06:22:54.590Z,98858.19
2023-04-01T06:26:09.078Z,98853.34
2023-04-01T06:29:31.117Z,98859.59
2023-04-01T06:32:51.494Z,98867.13
2023-04-01T06:36:12.618Z,98865.75
2023-04-01T06:39:38.472Z,98868.56
2023-04-01T06:43:19.874Z,98870.78
2023-04-01T06:46:47.831Z,98874.00
2023-04-01T06:50:20.282Z,98875.91
2023-04-01T06:53:36.751Z,98873.31
2023-04-01T06:56:49.501Z,98879.50
2023-04-01T06:59:52.908Z,98871.22
2023-04-01T07:03:01.120Z,98874.47
2023-04-01T07:06:06.271Z,98871.41
2023-04-01T07:09:19.306Z,98868.38
2023-04-01T07:12:37.199Z,98875.53
2023-04-01T07:16:00.658Z,98872.75
2023-04-01T07:19:17.849Z,98866.03
2023-04-01T07:22:45.657Z,98871.72
2023-04-01T07:25:54.886Z,98873.28
2023-04-01T07:28:57.879Z,98864.28
2023-04-01T07:32:21.513Z,98866.97
2023-04-01T07:36:15.476Z,98861.28
2023-04-01T07:39:17.758Z,98869.91
2023-04-01T07:42:24.708Z,98874.53
2023-04-01T07:45:48.260Z,98877.38
2023-04-01T07:49:07.656Z,98884.38
2023-04-01T07:52:16.411Z,98881.37
2023-04-01T07:55:37.966Z,98876.59
2023-04-01T07:59:08.788Z,98878.44
2023-04-01T08:02:16.128Z,98883.81
2023-04-01T08:05:28.309Z,98882.03
2023-04-01T08:08:49.302Z,98881.37
2023-04-01T08:12:19.644Z,98883.47
2023-04-01T08:15:31.562Z,98887.00
2023-04-01T08:18:40.305Z,98889.06
2023-04-01T08:21:46.981Z,98879.84
2023-04-01T08:24:52.526Z,98882.00
2023-04-01T08:28:00.645Z,98887.09
2023-04-01T08:31:17.203Z,98882.94
2023-04-01T08:34:24.294Z,98894.97
2023-04-01T08:37:33.440Z,98876.41
2023-04-01T08:40:35.781Z,98884.88
2023-04-01T08:43:44.248Z,98881.59
2023-04-01T08:47:02.511Z,98888.03
2023-04-01T08:50:27.401Z,98874.16
2023-04-01T08:54:18.693Z,98880.06
2023-04-01T08:57:36.790Z,98891.03
2023-04-01T09:00:55.863Z,98887.53
2023-04-01T09:04:22.802Z,98886.63
2023-04-01T09:07:43.911Z,98900.75
2023-04-01T09:11:08.027Z,98887.59
2023-04-01T09:14:47.830Z,98890.25
2023-04-01T09:18:14.498Z,98886.91
2023-04-01T09:21:32.948Z,98887.47
2023-04-01T09:25:03.209Z,98879.81
2023-04-01T09:28:13.971Z,98886.44
2023-04-01T09:31:26.094Z,98880.66
2023-04-01T09:34:47.069Z,98878.97
2023-04-01T09:38:05.132Z,98881.16
2023-04-01T09:41:32.001Z,98884.66
2023-04-01T09:44:48.356Z,98886.44
2023-04-01T09:47:56.575Z,98887.87
2023-04-01T09:51:12.076Z,98878.59
2023-04-01T09:54:38.825Z,98892.22
2023-04-01T09:58:07.489Z,98892.81
2023-04-01T10:01:35.883Z,98895.16
2023-04-01T10:04:51.674Z,98897.22
2023-04-01T10:08:35.857Z,98894.75
2023-04-01T10:11:59.862Z,98894.38
2023-04-01T10:15:29.280Z,98903.53
2023-04-01T10:18:59.895Z,98904.81
2023-04-01T10:22:32.799Z,98907.91
2023-04-01T10:25:44.665Z,98901.19
2023-04-01T10:28:55.796Z,98894.66
2023-04-01T10:32:32.078Z,98901.84
2023-04-01T10:35:56.196Z,98890.75
2023-04-01T10:39:34.515Z,98897.81
2023-04-01T10:43:06.081Z,98898.63
2023-04-01T10:46:27.353Z,98891.06
2023-04-01T10:49:48.828Z,98894.16
2023-04-01T10:53:32.508Z,98891.78
2023-04-01T10:56:56.485Z,98894.16
2023-04-01T11:00:24.274Z,98888.09
2023-04-01T11:03:32.548Z,98887.25
2023-04-01T11:07:18.453Z,98888.94
2023-04-01T11:10:23.457Z,98895.25
2023-04-01T11:13:47.948Z,98888.16
2023-04-01T11:17:28.574Z,98873.34
2023-04-01T11:21:02.613Z,98883.81
2023-04-01T11:24:16.762Z,98878.22
2023-04-01T11:27:57.628Z,98883.97
2023-04-01T11:31:18.886Z,98891.22
2023-04-01T11:34:39.030Z,98881.34
2023-04-01T11:38:03.000Z,98882.13
2023-04-01T11:41:31.992Z,98876.53
2023-04-01T11:44:47.267Z,98883.38
2023-04-01T11:48:18.038Z,98886.50
2023-04-01T11:51:32.524Z,98889.06
2023-04-01T11:54:55.591Z,98910.22
2023-04-01T11:58:16.181Z,98899.44
2023-04-01T12:01:42.806Z,98894.00
2023-04-01T12:05:07.251Z,98883.19
2023-04-01T12:08:40.299Z,98881.66
2023-04-01T12:11:42.799Z,98893.72
2023-04-01T12:15:04.177Z,98890.31
2023-04-01T12:18:24.219Z,98896.50
2023-04-01T12:21:43.136Z,98889.28
2023-04-01T12:24:56.361Z,98878.94
2023-04-01T12:28:21.278Z,98893.50
2023-04-01T12:31:33.020Z,98889.72
2023-04-01T12:34:41.084Z,98892.09
2023-04-01T12:38:14.587Z,98892.16
2023-04-01T12:41:19.892Z,98882.06
2023-04-01T12:44:37.888Z,98885.22
2023-04-01T12:47:53.664Z,98880.50
2023-04-01T12:51:22.360Z,98884.53
2023-04-01T12:55:00.683Z,98889.25
2023-04-01T12:58:39.926Z,98886.59
2023-04-01T13:01:51.125Z,98880.84
2023-04-01T13:05:31.514Z,98877.44
2023-04-01T13:08:42.914Z,98886.84
2023-04-01T13:12:17.411Z,98869.00
2023-04-01T13:15:56.774Z,98870.69
2023-04-01T13:19:18.743Z,98855.97
2023-04-01T13:22:32.072Z,98871.16
2023-04-01T13:26:06.880Z,98876.12
2023-04-01T13:29:27.101Z,98887.34
2023-04-01T13:32:43.628Z,98885.28
2023-04-01T13:35:56.976Z,98876.03
2023-04-01T13:39:09.953Z,98889.59
2023-04-01T13:42:22.273Z,98888.28
2023-04-01T13:45:33.227Z,98883.25
2023-04-01T13:48:46.712Z,98894.13
2023-04-01T13:52:01.144Z,98882.41
2023-04-01T13:55:31.258Z,98899.53
2023-04-01T13:58:47.285Z,98917.22
2023-04-01T14:02:04.379Z,98917.03
2023-04-01T14:05:32.471Z,98905.28
2023-04-01T14:09:11.661Z,98906.50
2023-04-01T14:12:20.279Z,98911.53
2023-04-01T14:15:44.409Z,98916.78
2023-04-01T14:19:01.444Z,98900.41
2023-04-01T14:22:35.620Z,98886.41
2023-04-01T14:26:03.104Z,98885.63
2023-04-01T14:29:35.876Z,98884.50
2023-04-01T14:33:09.231Z,98888.41
2023-04-01T14:36:42.671Z,98887.63
2023-04-01T14:40:01.299Z,98883.34
2023-04-01T14:43:17.399Z,98882.44
2023-04-01T14:46:38.785Z,98891.13
2023-04-01T14:49:45.572Z,98875.28
2023-04-01T14:52:57.951Z,98883.53
2023-04-01T14:56:03.761Z,98880.09
2023-04-01T14:59:26.589Z,98882.63
2023-04-01T15:02:34.750Z,98882.50
2023-04-01T15:05:55.980Z,98887.72
2023-04-01T15:09:13.070Z,98886.66
2023-04-01T15:12:25.302Z,98884.00
2023-04-01T15:15:41.535Z,98895.28
2023-04-01T15:18:59.537Z,98883.22
2023-04-01T15:22:14.216Z,98889.13
2023-04-01T15:25:44.078Z,98883.78
2023-04-01T15:29:15.828Z,98875.78
2023-04-01T15:32:42.881Z,98902.28
2023-04-01T15:36:16.305Z,98899.97
2023-04-01T15:39:24.048Z,98895.25
2023-04-01T15:42:54.276Z,98892.19
2023-04-01T15:46:13.174Z,98900.31
2023-04-01T15:49:23.627Z,98905.75
2023-04-01T15:52:58.655Z,98908.03
2023-04-01T15:56:09.961Z,98896.34
2023-04-01T15:59:30.382Z,98919.72
2023-04-01T16:02:43.181Z,98914.84
2023-04-01T16:06:17.363Z,98904.37
2023-04-01T16:09:51.771Z,98909.81
2023-04-01T16:13:18.332Z,98907.12
2023-04-01T16:16:31.285Z,98906.75
2023-04-01T16:19:53.920Z,98914.94
2023-04-01T16:23:03.310Z,98914.16
2023-04-01T16:26:21.608Z,98918.44
2023-04-01T16:29:49.105Z,98910.31
2023-04-01T16:32:58.054Z,98925.38
2023-04-01T16:36:21.521Z,98933.22
2023-04-01T16:39:54.442Z,98926.13
2023-04-01T16:43:14.287Z,98932.31
2023-04-01T16:46:33.743Z,98928.97
2023-04-01T16:50:00.442Z,98932.00
2023-04-01T16:53:16.820Z,98941.25
2023-04-01T16:56:37.249Z,98940.34
2023-04-01T17:00:01.706Z,98940.87
2023-04-01T17:03:32.117Z,98944.25
2023-04-01T17:07:20.224Z,98947.59
2023-04-01T17:10:44.019Z,98945.38
2023-04-01T17:13:49.755Z,98955.00
2023-04-01T17:16:54.556Z,98959.88
2023-04-01T17:20:30.506Z,98958.22
2023-04-01T17:23:48.913Z,98961.56
2023-04-01T17:27:07.533Z,98959.03
2023-04-01T17:30:19.620Z,98963.59
2023-04-01T17:33:54.180Z,98972.00
2023-04-01T17:36:56.315Z,98964.91
2023-04-01T17:40:16.373Z,98969.84
2023-04-01T17:43:37.355Z,98972.00
2023-04-01T17:47:00.471Z,98975.81
2023-04-01T17:50:33.869Z,98974.84
2023-04-01T17:53:48.687Z,98975.50
2023-04-01T17:57:12.253Z,98978.88
2023-04-01T18:00:54.260Z,98981.34
2023-04-01T18:04:09.154Z,98992.44
2023-04-01T18:07:46.722Z,98992.72
2023-04-01T18:11:12.982Z,99008.44
2023-04-01T18:14:47.318Z,99000.16
2023-04-01T18:18:14.418Z,99012.84
2023-04-01T18:21:48.321Z,99012.69
2023-04-01T18:25:02.559Z,99021.19
2023-04-01T18:28:25.799Z,99021.53
2023-04-01T18:31:36.259Z,99028.03
2023-04-01T18:34:51.563Z,99029.09
2023-04-01T18:38:14.522Z,99031.94
2023-04-01T18:41:37.823Z,99040.41
2023-04-01T18:44:47.661Z,99042.19
2023-04-01T18:48:16.623Z,99044.44
2023-04-01T18:51:34.112Z,99045.94
2023-04-01T18:54:50.132Z,99050.06
2023-04-01T18:58:25.142Z,99051.31
2023-04-01T19:01:42.964Z,99041.44
2023-04-01T19:05:01.286Z,99052.44
2023-04-01T19:08:21.394Z,99055.94
2023-04-01T19:11:23.820Z,99056.94
2023-04-01T19:14:54.409Z,99054.81
2023-04-01T19:18:32.701Z,99049.66
2023-04-01T19:21:54.810Z,99050.50
2023-04-01T19:25:18.554Z,99052.22
2023-04-01T19:28:56.061Z,99061.63
2023-04-01T19:32:04.572Z,99058.09
2023-04-01T19:35:48.397Z,99062.16
2023-04-01T19:39:01.768Z,99063.22
2023-04-01T19:42:46.298Z,99069.88
2023-04-01T19:46:16.754Z,99067.84
2023-04-01T19:49:25.312Z,99072.59
2023-04-01T19:52:36.862Z,99079.25
2023-04-01T19:56:14.065Z,99084.22
2023-04-01T19:59:37.873Z,99082.97
2023-04-01T20:02:54.608Z,99077.91
2023-04-01T20:06:06.448Z,99084.66
2023-04-01T20:09:27.698Z,99084.44
2023-04-01T20:13:03.544Z,99088.81
2023-04-01T20:16:08.496Z,99086.56
2023-04-01T20:19:12.491Z,99086.31
2023-04-01T20:22:29.612Z,99088.13
2023-04-01T20:25:47.061Z,99083.06
2023-04-01T20:29:30.468Z,99086.75
2023-04-01T20:33:08.559Z,99079.06
2023-04-01T20:36:32.554Z,99085.16
2023-04-01T20:39:58.037Z,99082.44
2023-04-01T20:43:35.437Z,99088.16
2023-04-01T20:47:02.684Z,99090.31
2023-04-01T20:50:33.869Z,99106.91
2023-04-01T20:54:04.272Z,99111.44
2023-04-01T20:57:22.037Z,99109.00
2023-04-01T21:01:12.662Z,99115.66
2023-04-01T21:04:29.020Z,99126.97
2023-04-01T21:07:54.546Z,99114.63
2023-04-01T21:11:09.342Z,99110.13
2023-04-01T21:14:47.332Z,99114.72
2023-04-01T21:18:21.811Z,99117.69
2023-04-01T21:21:42.502Z,99120.84
2023-04-01T21:25:18.248Z,99128.50
2023-04-01T21:28:36.770Z,99125.47
2023-04-01T21:31:58.904Z,99128.16
2023-04-01T21:35:41.032Z,99134.09
2023-04-01T21:39:05.832Z,99134.34
2023-04-01T21:42:43.656Z,99136.44
2023-04-01T21:46:04.537Z,99136.00
2023-04-01T21:49:36.935Z,99133.28
2023-04-01T21:53:13.921Z,99133.56
2023-04-01T21:56:41.025Z,99128.41
2023-04-01T22:00:11.908Z,99134.53
2023-04-01T22:03:33.338Z,99133.38
2023-04-01T22:06:48.158Z,99130.59
2023-04-01T22:10:15.750Z,99133.03
2023-04-01T22:13:26.030Z,99140.28
2023-04-01T22:16:48.521Z,99139.25
2023-04-01T22:20:15.673Z,99134.13
2023-04-01T22:23:37.621Z,99146.72
2023-04-01T22:26:54.938Z,99146.75
2023-04-01T22:30:06.157Z,99143.69
2023-04-01T22:33:16.041Z,99146.19
2023-04-01T22:36:27.553Z,99147.59
2023-04-01T22:39:37.788Z,99151.62
2023-04-01T22:42:46.843Z,99156.13
2023-04-01T22:46:19.582Z,99163.34
2023-04-01T22:49:30.418Z,99159.00
2023-04-01T22:52:39.111Z,99167.47
2023-04-01T22:55:52.983Z,99177.03
2023-04-01T22:59:17.053Z,99169.59
2023-04-01T23:02:29.208Z,99173.44
2023-04-01T23:05:32.747Z,99179.97
2023-04-01T23:08:47.889Z,99186.47
2023-04-01T23:11:54.320Z,99194.22
2023-04-01T23:15:02.061Z,99194.03
2023-04-01T23:18:25.522Z,99185.25
2023-04-01T23:21:36.944Z,99182.75
2023-04-01T23:24:51.774Z,99200.94
2023-04-01T23:28:00.127Z,99208.28
2023-04-01T23:31:02.661Z,99212.28
2023-04-01T23:34:14.112Z,99218.31
2023-04-01T23:37:18.741Z,99208.97
2023-04-01T23:40:21.547Z,99212.78
2023-04-01T23:43:28.191Z,99231.16
2023-04-01T23:46:34.757Z,99225.28
2023-04-01T23:49:41.804Z,99229.25
2023-04-01T23:52:50.214Z,99243.97
2023-04-01T23:55:53.597Z,99244.13
2023-04-01T23:58:57.840Z,99240.34
